CheckWX is a tool to help pilots better visualize weather data.  It is not intended as a substitute for an official pre-flight weather briefing.

01:54:39 UTC

KAIA TAF
Alliance Municipal Airport
Alliance, Nebraska, USA
KAIA 182320Z 1900/1924 25008KT P6SM SCT120 FM190700 31008KT P6SM SCT120 FM191500 33012G20KT P6SM SCT120

Mar-19@
00:00 UTC

Mar-19 @ 00:00 UTC

Mar-19@
07:00 UTC

Mar-19 @ 07:00 UTC

KAIA 182320Z 1900/1924 25008KT P6SM SCT120
Wind
  • 250° at 8 KTS
Cloud Levels
  • Scattered at 12,000' AGL

Mar-19@
07:00 UTC

Mar-19 @ 07:00 UTC

Mar-19@
15:00 UTC

Mar-19 @ 15:00 UTC

FM190700 31008KT P6SM SCT120

From

From Standard forecast or significant change

Wind
  • 310° at 8 KTS
Cloud Levels
  • Scattered at 12,000' AGL

Mar-19@
15:00 UTC

Mar-19 @ 15:00 UTC

Mar-20@
00:00 UTC

Mar-20 @ 00:00 UTC

FM191500 33012G20KT P6SM SCT120

From

From Standard forecast or significant change

Wind
  • 330° at 12 KTS
  • {Gusting to 20 KTS
Cloud Levels
  • Scattered at 12,000' AGL